createdAt,value
2023-02-01T00:00:49.249Z,78125.44
2023-02-01T00:06:01.024Z,78115.44
2023-02-01T00:11:04.704Z,78107.41
2023-02-01T00:16:26.795Z,78097.38
2023-02-01T00:21:28.760Z,78081.34
2023-02-01T00:26:37.635Z,78063.28
2023-02-01T00:31:39.230Z,78057.28
2023-02-01T00:36:41.764Z,78053.28
2023-02-01T00:41:43.719Z,78051.28
2023-02-01T00:46:45.367Z,78023.19
2023-02-01T00:51:46.852Z,78017.19
2023-02-01T00:56:48.377Z,77997.13
2023-02-01T01:01:49.969Z,77989.09
2023-02-01T01:06:51.521Z,77991.13
2023-02-01T01:11:53.622Z,77981.09
2023-02-01T01:16:55.067Z,77997.13
2023-02-01T01:21:56.492Z,78001.13
2023-02-01T01:26:57.906Z,78003.16
2023-02-01T01:31:59.427Z,77997.13
2023-02-01T01:37:00.897Z,77997.13
2023-02-01T01:42:02.594Z,77999.13
2023-02-01T01:47:04.320Z,77991.13
2023-02-01T01:52:06.770Z,77983.09
2023-02-01T01:57:15.317Z,77989.09
2023-02-01T02:02:17.589Z,77983.09
2023-02-01T02:07:26.338Z,77983.09
2023-02-01T02:12:28.381Z,77997.13
2023-02-01T02:17:32.499Z,77973.06
2023-02-01T02:22:58.919Z,77961.03
2023-02-01T02:28:06.501Z,77959.03
2023-02-01T02:33:47.343Z,77947.00
2023-02-01T02:39:14.569Z,77943.00
2023-02-01T02:44:55.085Z,77943.00
2023-02-01T02:50:24.283Z,77941.00
2023-02-01T02:55:28.094Z,77934.97
2023-02-01T03:00:52.337Z,77920.94
2023-02-01T03:05:53.833Z,77902.91
2023-02-01T03:11:05.032Z,77902.91
2023-02-01T03:16:23.312Z,77886.84
2023-02-01T03:21:37.027Z,77882.84
2023-02-01T03:26:46.176Z,77896.88
2023-02-01T03:31:47.845Z,77906.91
2023-02-01T03:36:53.256Z,77943.00
2023-02-01T03:41:58.357Z,77959.03
2023-02-01T03:47:17.471Z,77983.09
2023-02-01T03:52:24.459Z,77997.13
2023-02-01T03:57:34.132Z,78001.13
2023-02-01T04:02:35.805Z,77989.09
2023-02-01T04:07:37.243Z,77971.06
2023-02-01T04:12:39.676Z,77995.13
2023-02-01T04:17:41.284Z,78015.19
2023-02-01T04:22:42.770Z,78007.16
2023-02-01T04:27:44.385Z,78003.16
2023-02-01T04:32:45.895Z,78001.13
2023-02-01T04:37:47.373Z,77993.13
2023-02-01T04:42:48.853Z,77983.09
2023-02-01T04:47:50.314Z,77985.09
2023-02-01T04:52:51.726Z,77977.09
2023-02-01T04:57:53.226Z,77971.06
2023-02-01T05:02:54.723Z,77979.09
2023-02-01T05:07:56.410Z,77979.09
2023-02-01T05:13:16.546Z,77993.13
2023-02-01T05:18:18.028Z,77987.09
2023-02-01T05:23:19.482Z,77987.09
2023-02-01T05:28:21.019Z,77987.09
2023-02-01T05:33:22.526Z,77995.13
2023-02-01T05:38:23.958Z,77999.13
2023-02-01T05:43:25.409Z,78011.16
2023-02-01T05:48:27.505Z,78023.19
2023-02-01T05:53:28.952Z,78017.19
2023-02-01T05:58:31.051Z,78017.19
2023-02-01T06:03:32.669Z,78039.22
2023-02-01T06:08:34.180Z,78037.22
2023-02-01T06:13:36.038Z,78007.16
2023-02-01T06:18:37.726Z,78007.16
2023-02-01T06:23:39.133Z,78021.19
2023-02-01T06:28:40.577Z,78011.16
2023-02-01T06:33:42.095Z,78011.16
2023-02-01T06:38:43.603Z,78007.16
2023-02-01T06:43:46.487Z,78001.13
2023-02-01T06:48:48.470Z,77991.13
2023-02-01T06:53:50.094Z,77997.13
2023-02-01T06:58:51.831Z,77985.09
2023-02-01T07:03:53.299Z,77971.06
2023-02-01T07:08:56.804Z,77949.00
2023-02-01T07:13:58.909Z,77936.97
2023-02-01T07:19:00.715Z,77922.94
2023-02-01T07:24:02.315Z,77930.97
2023-02-01T07:29:03.863Z,77926.97
2023-02-01T07:34:05.620Z,77916.94
2023-02-01T07:39:07.222Z,77924.94
2023-02-01T07:44:08.733Z,77910.91
2023-02-01T07:49:10.242Z,77934.97
2023-02-01T07:54:11.740Z,77957.03
2023-02-01T07:59:13.204Z,77971.06
2023-02-01T08:04:14.907Z,77983.09
2023-02-01T08:09:16.514Z,77995.13
2023-02-01T08:14:17.989Z,77981.09
2023-02-01T08:19:20.152Z,77965.06
2023-02-01T08:24:22.505Z,77941.00
2023-02-01T08:29:23.957Z,77922.94
2023-02-01T08:34:25.565Z,77936.97
2023-02-01T08:39:27.630Z,77936.97
2023-02-01T08:44:29.095Z,77912.91
2023-02-01T08:49:30.832Z,77870.81
2023-02-01T08:54:32.313Z,77822.69
2023-02-01T08:59:33.878Z,77788.63
2023-02-01T09:04:35.620Z,77758.53
2023-02-01T09:09:37.990Z,77730.47
2023-02-01T09:14:39.530Z,77688.38
2023-02-01T09:19:42.741Z,77686.38
2023-02-01T09:24:44.534Z,77678.34
2023-02-01T09:29:46.024Z,77509.94
2023-02-01T09:34:47.573Z,77570.09
2023-02-01T09:39:49.103Z,77475.88
2023-02-01T09:45:18.603Z,77546.03
2023-02-01T09:50:24.452Z,77491.91
2023-02-01T09:55:47.414Z,77562.06
2023-02-01T10:00:54.101Z,77538.00
2023-02-01T10:06:05.772Z,77534.00
2023-02-01T10:11:49.400Z,77562.06
2023-02-01T10:17:26.696Z,77604.16
2023-02-01T10:23:27.295Z,77570.09
2023-02-01T10:28:35.254Z,77499.91
2023-02-01T10:33:46.721Z,77542.03
2023-02-01T10:38:48.455Z,77584.13
2023-02-01T10:43:55.741Z,77596.16
2023-02-01T10:49:01.624Z,77610.19
2023-02-01T10:54:11.441Z,77602.16
2023-02-01T10:59:19.510Z,77578.09
2023-02-01T11:04:21.678Z,77568.09
2023-02-01T11:09:26.145Z,77544.03
2023-02-01T11:14:34.856Z,77525.97
2023-02-01T11:19:36.448Z,77509.94
2023-02-01T11:24:40.012Z,77525.97
2023-02-01T11:29:46.219Z,77517.97
2023-02-01T11:34:53.887Z,77542.03
2023-02-01T11:40:01.613Z,77552.03
2023-02-01T11:45:18.344Z,77624.22
2023-02-01T11:50:34.689Z,77672.34
2023-02-01T11:55:51.066Z,77756.53
2023-02-01T12:01:07.415Z,77770.56
2023-02-01T12:06:30.813Z,77738.50
2023-02-01T12:11:50.625Z,77718.44
2023-02-01T12:17:38.112Z,77686.38
2023-02-01T12:22:54.432Z,77662.31
2023-02-01T12:28:28.369Z,77658.31
2023-02-01T12:34:00.958Z,77672.34
2023-02-01T12:39:24.512Z,77680.34
2023-02-01T12:44:28.976Z,77692.38
2023-02-01T12:49:45.516Z,77694.38
2023-02-01T12:55:04.004Z,77680.34
2023-02-01T13:00:23.461Z,77311.47
2023-02-01T13:06:03.662Z,77008.78
2023-02-01T13:11:14.737Z,77219.25
2023-02-01T13:16:28.064Z,77367.59
2023-02-01T13:21:35.110Z,77181.19
2023-02-01T13:26:36.639Z,77016.81
2023-02-01T13:31:56.752Z,77267.38
2023-02-01T13:37:41.193Z,77423.75
2023-02-01T13:42:51.045Z,77457.81
2023-02-01T13:47:55.779Z,77393.66
2023-02-01T13:53:12.605Z,77505.94
2023-02-01T13:58:23.220Z,77548.03
2023-02-01T14:03:45.123Z,77604.16
2023-02-01T14:08:50.069Z,77656.28
2023-02-01T14:13:51.595Z,77680.34
2023-02-01T14:19:02.415Z,77698.41
2023-02-01T14:24:20.195Z,77714.44
2023-02-01T14:29:43.351Z,77728.47
2023-02-01T14:34:48.015Z,77738.50
2023-02-01T14:39:56.435Z,77750.53
2023-02-01T14:45:24.489Z,77746.50
2023-02-01T14:50:33.908Z,77748.50
2023-02-01T14:55:41.116Z,77738.50
2023-02-01T15:00:50.268Z,77742.50
2023-02-01T15:06:01.006Z,77720.44
2023-02-01T15:11:11.903Z,77694.38
2023-02-01T15:16:15.820Z,77690.38
2023-02-01T15:21:27.423Z,77702.41
2023-02-01T15:26:33.153Z,77714.44
2023-02-01T15:31:41.738Z,77722.44
2023-02-01T15:36:56.863Z,77728.47
2023-02-01T15:42:12.637Z,77734.47
2023-02-01T15:47:19.825Z,77730.47
2023-02-01T15:52:32.635Z,77728.47
2023-02-01T15:57:43.026Z,77728.47
2023-02-01T16:02:54.086Z,77722.44
2023-02-01T16:08:04.815Z,77720.44
2023-02-01T16:13:06.265Z,77718.44
2023-02-01T16:18:09.080Z,77714.44
2023-02-01T16:23:11.531Z,77708.41
2023-02-01T16:28:13.190Z,77720.44
2023-02-01T16:33:22.699Z,77738.50
2023-02-01T16:38:24.684Z,77736.50
2023-02-01T16:43:27.175Z,77744.50
2023-02-01T16:48:35.356Z,77728.47
2023-02-01T16:53:52.373Z,77746.50
2023-02-01T16:58:55.545Z,77746.50
2023-02-01T17:03:57.166Z,77770.56
2023-02-01T17:08:59.755Z,77762.56
2023-02-01T17:14:16.819Z,77778.59
2023-02-01T17:19:23.759Z,77772.56
2023-02-01T17:24:42.467Z,77762.56
2023-02-01T17:29:49.546Z,77766.56
2023-02-01T17:34:51.411Z,77756.53
2023-02-01T17:39:55.886Z,77800.66
2023-02-01T17:45:03.129Z,77810.66
2023-02-01T17:50:05.001Z,77796.63
2023-02-01T17:55:17.958Z,77788.63
2023-02-01T18:00:20.215Z,77782.59
2023-02-01T18:05:36.861Z,77780.59
2023-02-01T18:10:38.396Z,77784.59
2023-02-01T18:15:39.984Z,77816.69
2023-02-01T18:20:44.072Z,77842.75
2023-02-01T18:25:47.128Z,77854.78
2023-02-01T18:30:51.160Z,77870.81
2023-02-01T18:35:52.675Z,77876.84
2023-02-01T18:40:58.141Z,77894.88
2023-02-01T18:45:59.675Z,77900.88
2023-02-01T18:51:01.330Z,77918.94
2023-02-01T18:56:02.958Z,77906.91
2023-02-01T19:01:07.414Z,77904.91
2023-02-01T19:06:09.102Z,77900.88
2023-02-01T19:11:10.702Z,77902.91
2023-02-01T19:16:13.556Z,77916.94
2023-02-01T19:21:15.503Z,77930.97
2023-02-01T19:26:18.405Z,77910.91
2023-02-01T19:31:20.150Z,77880.84
2023-02-01T19:36:21.702Z,77872.81
2023-02-01T19:41:23.232Z,77852.78
2023-02-01T19:46:25.699Z,77832.72
2023-02-01T19:51:27.165Z,77818.69
2023-02-01T19:56:28.664Z,77848.75
2023-02-01T20:01:30.246Z,77818.69
2023-02-01T20:06:33.626Z,77796.63
2023-02-01T20:11:35.112Z,77778.59
2023-02-01T20:16:36.713Z,77770.56
2023-02-01T20:21:39.441Z,77768.56
2023-02-01T20:26:42.994Z,77758.53
2023-02-01T20:31:45.851Z,77766.56
2023-02-01T20:36:47.398Z,77778.59
2023-02-01T20:41:48.954Z,77780.59
2023-02-01T20:46:50.568Z,77786.59
2023-02-01T20:51:52.761Z,77806.66
2023-02-01T20:56:54.310Z,77808.66
2023-02-01T21:01:55.828Z,77810.66
2023-02-01T21:06:58.928Z,77818.69
2023-02-01T21:12:00.552Z,77834.72
2023-02-01T21:17:02.523Z,77826.72
2023-02-01T21:22:04.509Z,77844.75
2023-02-01T21:27:06.136Z,77834.72
2023-02-01T21:32:08.482Z,77824.69
2023-02-01T21:37:09.949Z,77826.72
2023-02-01T21:42:14.058Z,77832.72
2023-02-01T21:47:18.268Z,77834.72
2023-02-01T21:52:20.113Z,77830.72
2023-02-01T21:57:22.677Z,77844.75
2023-02-01T22:02:24.461Z,77852.78
2023-02-01T22:07:26.003Z,77866.81
2023-02-01T22:12:27.683Z,77896.88
2023-02-01T22:17:29.126Z,77902.91
2023-02-01T22:22:31.107Z,77918.94
2023-02-01T22:28:33.039Z,77928.97
2023-02-01T22:32:54.281Z,77928.97
2023-02-01T22:37:55.715Z,77926.97
2023-02-01T22:42:57.196Z,77938.97
2023-02-01T22:47:58.679Z,77951.00
2023-02-01T22:53:00.115Z,77973.06
2023-02-01T22:58:01.872Z,77987.09
2023-02-01T23:03:03.509Z,77999.13
2023-02-01T23:08:05.069Z,78017.19
2023-02-01T23:13:06.526Z,78019.19
2023-02-01T23:18:08.051Z,78007.16
2023-02-01T23:23:09.595Z,78023.19
2023-02-01T23:28:11.055Z,78017.19
2023-02-01T23:33:12.566Z,78015.19
2023-02-01T23:38:14.108Z,78033.22
2023-02-01T23:43:34.175Z,78073.31
2023-02-01T23:48:35.645Z,78093.38
2023-02-01T23:53:37.281Z,78105.41
2023-02-01T23:58:38.815Z,78129.47
